sensor_id;sensor_type;location;lat;lon;timestamp;P1;durP1;ratioP1;P2;durP2;ratioP2
6985;SDS011;3533;51.246;6.850;2024-01-11T00:00:36;6.20;;;5.80;;
6985;SDS011;3533;51.246;6.850;2024-01-11T00:03:02;6.63;;;6.13;;
6985;SDS011;3533;51.246;6.850;2024-01-11T00:05:28;6.67;;;6.07;;
6985;SDS011;3533;51.246;6.850;2024-01-11T00:07:53;6.30;;;5.90;;
6985;SDS011;3533;51.246;6.850;2024-01-11T00:10:19;6.77;;;5.90;;
6985;SDS011;3533;51.246;6.850;2024-01-11T00:12:45;6.60;;;6.10;;
6985;SDS011;3533;51.246;6.850;2024-01-11T00:15:11;6.90;;;6.30;;
6985;SDS011;3533;51.246;6.850;2024-01-11T00:17:37;5.83;;;5.43;;
6985;SDS011;3533;51.246;6.850;2024-01-11T00:20:03;6.50;;;6.00;;
6985;SDS011;3533;51.246;6.850;2024-01-11T00:22:29;6.80;;;6.20;;
6985;SDS011;3533;51.246;6.850;2024-01-11T00:24:54;6.50;;;6.00;;
6985;SDS011;3533;51.246;6.850;2024-01-11T00:27:20;6.77;;;6.17;;
6985;SDS011;3533;51.246;6.850;2024-01-11T00:29:45;6.40;;;5.80;;
6985;SDS011;3533;51.246;6.850;2024-01-11T00:32:11;7.00;;;6.40;;
6985;SDS011;3533;51.246;6.850;2024-01-11T00:34:36;6.30;;;5.80;;
6985;SDS011;3533;51.246;6.850;2024-01-11T00:37:03;6.40;;;5.93;;
6985;SDS011;3533;51.246;6.850;2024-01-11T00:39:28;6.80;;;6.20;;
6985;SDS011;3533;51.246;6.850;2024-01-11T00:41:54;6.47;;;5.37;;
6985;SDS011;3533;51.246;6.850;2024-01-11T00:44:20;7.70;;;7.00;;
6985;SDS011;3533;51.246;6.850;2024-01-11T00:46:45;6.40;;;5.80;;
6985;SDS011;3533;51.246;6.850;2024-01-11T00:49:11;6.00;;;5.60;;
6985;SDS011;3533;51.246;6.850;2024-01-11T00:51:37;6.53;;;6.10;;
6985;SDS011;3533;51.246;6.850;2024-01-11T00:54:02;7.20;;;6.60;;
6985;SDS011;3533;51.246;6.850;2024-01-11T00:56:28;5.90;;;5.50;;
6985;SDS011;3533;51.246;6.850;2024-01-11T00:58:53;6.07;;;5.67;;
6985;SDS011;3533;51.246;6.850;2024-01-11T01:01:19;6.10;;;5.70;;
6985;SDS011;3533;51.246;6.850;2024-01-11T01:03:44;7.10;;;6.50;;
6985;SDS011;3533;51.246;6.850;2024-01-11T01:06:10;6.20;;;5.60;;
6985;SDS011;3533;51.246;6.850;2024-01-11T01:08:36;6.63;;;6.13;;
6985;SDS011;3533;51.246;6.850;2024-01-11T01:11:01;6.23;;;5.83;;
6985;SDS011;3533;51.246;6.850;2024-01-11T01:13:27;6.77;;;6.20;;
6985;SDS011;3533;51.246;6.850;2024-01-11T01:15:52;6.47;;;5.87;;
6985;SDS011;3533;51.246;6.850;2024-01-11T01:18:18;5.70;;;5.30;;
6985;SDS011;3533;51.246;6.850;2024-01-11T01:20:43;6.80;;;6.30;;
6985;SDS011;3533;51.246;6.850;2024-01-11T01:23:09;6.37;;;5.97;;
6985;SDS011;3533;51.246;6.850;2024-01-11T01:25:34;6.40;;;5.87;;
6985;SDS011;3533;51.246;6.850;2024-01-11T01:28:00;6.17;;;5.70;;
6985;SDS011;3533;51.246;6.850;2024-01-11T01:30:26;6.30;;;5.77;;
6985;SDS011;3533;51.246;6.850;2024-01-11T01:32:52;6.23;;;5.80;;
6985;SDS011;3533;51.246;6.850;2024-01-11T01:35:18;5.60;;;5.20;;
6985;SDS011;3533;51.246;6.850;2024-01-11T01:37:43;5.93;;;5.47;;
6985;SDS011;3533;51.246;6.850;2024-01-11T01:40:09;6.27;;;5.77;;
6985;SDS011;3533;51.246;6.850;2024-01-11T01:42:36;5.80;;;5.37;;
6985;SDS011;3533;51.246;6.850;2024-01-11T01:45:10;6.10;;;5.60;;
6985;SDS011;3533;51.246;6.850;2024-01-11T01:47:36;6.13;;;5.63;;
6985;SDS011;3533;51.246;6.850;2024-01-11T01:50:04;5.80;;;5.40;;
6985;SDS011;3533;51.246;6.850;2024-01-11T01:52:30;6.40;;;5.77;;
6985;SDS011;3533;51.246;6.850;2024-01-11T01:54:57;5.67;;;5.17;;
6985;SDS011;3533;51.246;6.850;2024-01-11T01:57:24;5.93;;;5.43;;
6985;SDS011;3533;51.246;6.850;2024-01-11T01:59:50;5.97;;;5.37;;
6985;SDS011;3533;51.246;6.850;2024-01-11T02:02:17;6.20;;;5.80;;
6985;SDS011;3533;51.246;6.850;2024-01-11T02:04:44;6.17;;;5.67;;
6985;SDS011;3533;51.246;6.850;2024-01-11T02:07:10;5.97;;;5.57;;
6985;SDS011;3533;51.246;6.850;2024-01-11T02:09:36;6.47;;;5.93;;
6985;SDS011;3533;51.246;6.850;2024-01-11T02:12:02;6.30;;;5.80;;
6985;SDS011;3533;51.246;6.850;2024-01-11T02:14:28;6.80;;;6.30;;
6985;SDS011;3533;51.246;6.850;2024-01-11T02:16:54;6.10;;;5.70;;
6985;SDS011;3533;51.246;6.850;2024-01-11T02:19:20;7.00;;;6.03;;
6985;SDS011;3533;51.246;6.850;2024-01-11T02:21:46;6.57;;;5.80;;
6985;SDS011;3533;51.246;6.850;2024-01-11T02:24:13;5.90;;;5.30;;
6985;SDS011;3533;51.246;6.850;2024-01-11T02:26:57;6.00;;;5.60;;
6985;SDS011;3533;51.246;6.850;2024-01-11T02:29:27;6.73;;;6.20;;
6985;SDS011;3533;51.246;6.850;2024-01-11T02:31:54;5.77;;;5.30;;
6985;SDS011;3533;51.246;6.850;2024-01-11T02:34:20;5.80;;;5.40;;
6985;SDS011;3533;51.246;6.850;2024-01-11T02:36:48;5.70;;;5.30;;
6985;SDS011;3533;51.246;6.850;2024-01-11T02:39:16;6.30;;;5.70;;
6985;SDS011;3533;51.246;6.850;2024-01-11T02:41:43;6.97;;;6.37;;
6985;SDS011;3533;51.246;6.850;2024-01-11T02:44:09;6.03;;;5.63;;
6985;SDS011;3533;51.246;6.850;2024-01-11T02:46:35;7.13;;;6.53;;
6985;SDS011;3533;51.246;6.850;2024-01-11T02:49:00;6.63;;;6.13;;
6985;SDS011;3533;51.246;6.850;2024-01-11T02:51:26;5.53;;;5.23;;
6985;SDS011;3533;51.246;6.850;2024-01-11T02:53:52;7.03;;;6.43;;
6985;SDS011;3533;51.246;6.850;2024-01-11T02:56:17;6.67;;;6.13;;
6985;SDS011;3533;51.246;6.850;2024-01-11T02:58:43;5.40;;;5.00;;
6985;SDS011;3533;51.246;6.850;2024-01-11T03:01:08;6.30;;;5.80;;
6985;SDS011;3533;51.246;6.850;2024-01-11T03:03:34;6.30;;;5.90;;
6985;SDS011;3533;51.246;6.850;2024-01-11T03:06:00;6.93;;;6.33;;
6985;SDS011;3533;51.246;6.850;2024-01-11T03:08:26;5.60;;;5.20;;
6985;SDS011;3533;51.246;6.850;2024-01-11T03:10:51;5.90;;;5.40;;
6985;SDS011;3533;51.246;6.850;2024-01-11T03:13:17;6.40;;;5.80;;
6985;SDS011;3533;51.246;6.850;2024-01-11T03:15:43;6.37;;;5.97;;
6985;SDS011;3533;51.246;6.850;2024-01-11T03:18:09;7.07;;;6.37;;
6985;SDS011;3533;51.246;6.850;2024-01-11T03:20:34;6.47;;;6.00;;
6985;SDS011;3533;51.246;6.850;2024-01-11T03:23:00;6.03;;;5.47;;
6985;SDS011;3533;51.246;6.850;2024-01-11T03:25:25;5.87;;;5.37;;
6985;SDS011;3533;51.246;6.850;2024-01-11T03:27:51;5.70;;;5.30;;
6985;SDS011;3533;51.246;6.850;2024-01-11T03:30:16;6.80;;;6.20;;
6985;SDS011;3533;51.246;6.850;2024-01-11T03:32:42;5.30;;;4.97;;
6985;SDS011;3533;51.246;6.850;2024-01-11T03:35:08;5.07;;;4.77;;
6985;SDS011;3533;51.246;6.850;2024-01-11T03:37:34;6.83;;;6.23;;
6985;SDS011;3533;51.246;6.850;2024-01-11T03:40:00;6.17;;;5.53;;
6985;SDS011;3533;51.246;6.850;2024-01-11T03:42:27;6.70;;;6.10;;
6985;SDS011;3533;51.246;6.850;2024-01-11T03:44:53;5.83;;;5.40;;
6985;SDS011;3533;51.246;6.850;2024-01-11T03:47:18;6.30;;;5.80;;
6985;SDS011;3533;51.246;6.850;2024-01-11T03:49:44;5.73;;;5.33;;
6985;SDS011;3533;51.246;6.850;2024-01-11T03:52:09;5.67;;;5.27;;
6985;SDS011;3533;51.246;6.850;2024-01-11T03:54:35;5.70;;;5.30;;
6985;SDS011;3533;51.246;6.850;2024-01-11T03:57:00;5.97;;;5.57;;
6985;SDS011;3533;51.246;6.850;2024-01-11T03:59:26;6.07;;;5.57;;
6985;SDS011;3533;51.246;6.850;2024-01-11T04:01:52;6.67;;;5.97;;
6985;SDS011;3533;51.246;6.850;2024-01-11T04:04:17;5.90;;;5.50;;
6985;SDS011;3533;51.246;6.850;2024-01-11T04:06:43;5.67;;;5.27;;
6985;SDS011;3533;51.246;6.850;2024-01-11T04:09:10;5.80;;;5.40;;
6985;SDS011;3533;51.246;6.850;2024-01-11T04:11:35;6.47;;;5.87;;
6985;SDS011;3533;51.246;6.850;2024-01-11T04:14:01;6.80;;;6.30;;
6985;SDS011;3533;51.246;6.850;2024-01-11T04:16:27;7.23;;;6.53;;
6985;SDS011;3533;51.246;6.850;2024-01-11T04:18:53;5.60;;;5.23;;
6985;SDS011;3533;51.246;6.850;2024-01-11T04:21:24;6.30;;;5.70;;
6985;SDS011;3533;51.246;6.850;2024-01-11T04:23:54;7.53;;;6.83;;
6985;SDS011;3533;51.246;6.850;2024-01-11T04:26:23;6.10;;;5.60;;
6985;SDS011;3533;51.246;6.850;2024-01-11T04:28:49;6.43;;;5.93;;
6985;SDS011;3533;51.246;6.850;2024-01-11T04:31:15;6.20;;;5.70;;
6985;SDS011;3533;51.246;6.850;2024-01-11T04:33:42;6.23;;;5.73;;
6985;SDS011;3533;51.246;6.850;2024-01-11T04:36:11;6.20;;;5.70;;
6985;SDS011;3533;51.246;6.850;2024-01-11T04:38:38;7.27;;;6.57;;
6985;SDS011;3533;51.246;6.850;2024-01-11T04:41:12;6.77;;;6.17;;
6985;SDS011;3533;51.246;6.850;2024-01-11T04:43:39;6.53;;;5.90;;
6985;SDS011;3533;51.246;6.850;2024-01-11T04:46:15;6.17;;;5.67;;
6985;SDS011;3533;51.246;6.850;2024-01-11T04:48:41;6.57;;;5.87;;
6985;SDS011;3533;51.246;6.850;2024-01-11T04:51:08;5.80;;;5.40;;
6985;SDS011;3533;51.246;6.850;2024-01-11T04:53:36;6.40;;;5.93;;
6985;SDS011;3533;51.246;6.850;2024-01-11T04:56:03;6.93;;;6.30;;
6985;SDS011;3533;51.246;6.850;2024-01-11T04:58:28;6.80;;;6.00;;
6985;SDS011;3533;51.246;6.850;2024-01-11T05:00:54;6.03;;;5.63;;
6985;SDS011;3533;51.246;6.850;2024-01-11T05:03:19;6.20;;;5.60;;
6985;SDS011;3533;51.246;6.850;2024-01-11T05:05:45;6.70;;;6.20;;
6985;SDS011;3533;51.246;6.850;2024-01-11T05:08:10;6.70;;;6.10;;
6985;SDS011;3533;51.246;6.850;2024-01-11T05:10:36;7.60;;;5.90;;
6985;SDS011;3533;51.246;6.850;2024-01-11T05:13:02;6.53;;;5.80;;
6985;SDS011;3533;51.246;6.850;2024-01-11T05:15:27;7.33;;;5.80;;
6985;SDS011;3533;51.246;6.850;2024-01-11T05:17:54;10.10;;;6.30;;
6985;SDS011;3533;51.246;6.850;2024-01-11T05:20:21;6.60;;;6.10;;
6985;SDS011;3533;51.246;6.850;2024-01-11T05:22:47;9.00;;;6.90;;
6985;SDS011;3533;51.246;6.850;2024-01-11T05:25:12;6.53;;;5.73;;
6985;SDS011;3533;51.246;6.850;2024-01-11T05:27:39;7.00;;;6.40;;
6985;SDS011;3533;51.246;6.850;2024-01-11T05:30:04;6.80;;;6.30;;
6985;SDS011;3533;51.246;6.850;2024-01-11T05:32:31;7.03;;;6.53;;
6985;SDS011;3533;51.246;6.850;2024-01-11T05:34:56;7.70;;;6.27;;
6985;SDS011;3533;51.246;6.850;2024-01-11T05:37:22;7.07;;;6.47;;
6985;SDS011;3533;51.246;6.850;2024-01-11T05:39:48;6.57;;;6.07;;
6985;SDS011;3533;51.246;6.850;2024-01-11T05:42:13;7.70;;;6.80;;
6985;SDS011;3533;51.246;6.850;2024-01-11T05:44:39;7.20;;;6.50;;
6985;SDS011;3533;51.246;6.850;2024-01-11T05:47:04;6.13;;;5.73;;
6985;SDS011;3533;51.246;6.850;2024-01-11T05:49:30;7.13;;;6.30;;
6985;SDS011;3533;51.246;6.850;2024-01-11T05:51:55;7.10;;;6.37;;
6985;SDS011;3533;51.246;6.850;2024-01-11T05:54:21;7.23;;;6.60;;
6985;SDS011;3533;51.246;6.850;2024-01-11T05:56:47;7.53;;;6.93;;
6985;SDS011;3533;51.246;6.850;2024-01-11T05:59:12;9.53;;;6.50;;
6985;SDS011;3533;51.246;6.850;2024-01-11T06:01:41;7.23;;;6.43;;
6985;SDS011;3533;51.246;6.850;2024-01-11T06:04:07;7.10;;;6.50;;
6985;SDS011;3533;51.246;6.850;2024-01-11T06:06:33;8.73;;;6.23;;
6985;SDS011;3533;51.246;6.850;2024-01-11T06:08:59;7.37;;;6.77;;
6985;SDS011;3533;51.246;6.850;2024-01-11T06:11:24;7.47;;;6.70;;
6985;SDS011;3533;51.246;6.850;2024-01-11T06:13:50;7.00;;;6.30;;
6985;SDS011;3533;51.246;6.850;2024-01-11T06:16:15;6.97;;;6.30;;
6985;SDS011;3533;51.246;6.850;2024-01-11T06:18:41;6.87;;;6.27;;
6985;SDS011;3533;51.246;6.850;2024-01-11T06:21:06;7.67;;;6.97;;
6985;SDS011;3533;51.246;6.850;2024-01-11T06:23:32;8.73;;;7.93;;
6985;SDS011;3533;51.246;6.850;2024-01-11T06:25:58;8.90;;;6.80;;
6985;SDS011;3533;51.246;6.850;2024-01-11T06:28:23;8.43;;;6.57;;
6985;SDS011;3533;51.246;6.850;2024-01-11T06:30:49;6.47;;;5.97;;
6985;SDS011;3533;51.246;6.850;2024-01-11T06:33:14;8.70;;;7.90;;
6985;SDS011;3533;51.246;6.850;2024-01-11T06:35:40;7.57;;;6.87;;
6985;SDS011;3533;51.246;6.850;2024-01-11T06:38:05;7.77;;;7.17;;
6985;SDS011;3533;51.246;6.850;2024-01-11T06:40:31;7.47;;;6.73;;
6985;SDS011;3533;51.246;6.850;2024-01-11T06:42:56;7.37;;;6.70;;
6985;SDS011;3533;51.246;6.850;2024-01-11T06:45:22;6.80;;;6.20;;
6985;SDS011;3533;51.246;6.850;2024-01-11T06:47:48;6.57;;;6.07;;
6985;SDS011;3533;51.246;6.850;2024-01-11T06:50:14;6.83;;;6.17;;
6985;SDS011;3533;51.246;6.850;2024-01-11T06:52:39;8.00;;;6.70;;
6985;SDS011;3533;51.246;6.850;2024-01-11T06:55:05;10.13;;;6.47;;
6985;SDS011;3533;51.246;6.850;2024-01-11T06:57:31;7.90;;;7.20;;
6985;SDS011;3533;51.246;6.850;2024-01-11T06:59:56;6.80;;;6.20;;
6985;SDS011;3533;51.246;6.850;2024-01-11T07:02:22;7.80;;;7.00;;
6985;SDS011;3533;51.246;6.850;2024-01-11T07:04:47;7.13;;;6.53;;
6985;SDS011;3533;51.246;6.850;2024-01-11T07:07:13;7.27;;;6.57;;
6985;SDS011;3533;51.246;6.850;2024-01-11T07:09:39;7.30;;;6.70;;
6985;SDS011;3533;51.246;6.850;2024-01-11T07:12:04;7.90;;;7.23;;
6985;SDS011;3533;51.246;6.850;2024-01-11T07:14:30;7.73;;;7.00;;
6985;SDS011;3533;51.246;6.850;2024-01-11T07:16:56;7.33;;;6.73;;
6985;SDS011;3533;51.246;6.850;2024-01-11T07:19:21;7.37;;;6.67;;
6985;SDS011;3533;51.246;6.850;2024-01-11T07:21:47;7.27;;;6.70;;
6985;SDS011;3533;51.246;6.850;2024-01-11T07:24:12;17.67;;;7.70;;
6985;SDS011;3533;51.246;6.850;2024-01-11T07:26:38;8.37;;;7.57;;
6985;SDS011;3533;51.246;6.850;2024-01-11T07:29:04;7.50;;;6.80;;
6985;SDS011;3533;51.246;6.850;2024-01-11T07:31:29;8.07;;;7.37;;
6985;SDS011;3533;51.246;6.850;2024-01-11T07:33:55;8.53;;;7.70;;
6985;SDS011;3533;51.246;6.850;2024-01-11T07:36:20;7.20;;;6.60;;
6985;SDS011;3533;51.246;6.850;2024-01-11T07:38:47;7.87;;;7.10;;
6985;SDS011;3533;51.246;6.850;2024-01-11T07:41:13;7.50;;;6.83;;
6985;SDS011;3533;51.246;6.850;2024-01-11T07:43:39;7.33;;;6.67;;
6985;SDS011;3533;51.246;6.850;2024-01-11T07:46:05;7.33;;;6.73;;
6985;SDS011;3533;51.246;6.850;2024-01-11T07:48:32;7.00;;;6.50;;
6985;SDS011;3533;51.246;6.850;2024-01-11T07:50:58;7.40;;;6.80;;
6985;SDS011;3533;51.246;6.850;2024-01-11T07:53:24;7.23;;;6.47;;
6985;SDS011;3533;51.246;6.850;2024-01-11T07:55:50;7.23;;;6.67;;
6985;SDS011;3533;51.246;6.850;2024-01-11T07:58:16;7.63;;;7.00;;
6985;SDS011;3533;51.246;6.850;2024-01-11T08:00:42;7.57;;;6.97;;
6985;SDS011;3533;51.246;6.850;2024-01-11T08:03:07;7.33;;;6.67;;
6985;SDS011;3533;51.246;6.850;2024-01-11T08:05:33;7.83;;;7.10;;
6985;SDS011;3533;51.246;6.850;2024-01-11T08:07:59;7.47;;;6.90;;
6985;SDS011;3533;51.246;6.850;2024-01-11T08:10:27;7.60;;;6.90;;
6985;SDS011;3533;51.246;6.850;2024-01-11T08:12:53;7.47;;;6.87;;
6985;SDS011;3533;51.246;6.850;2024-01-11T08:15:19;6.80;;;6.20;;
6985;SDS011;3533;51.246;6.850;2024-01-11T08:17:45;7.07;;;6.47;;
6985;SDS011;3533;51.246;6.850;2024-01-11T08:20:11;7.67;;;6.93;;
6985;SDS011;3533;51.246;6.850;2024-01-11T08:22:36;7.43;;;6.70;;
6985;SDS011;3533;51.246;6.850;2024-01-11T08:25:09;7.70;;;7.00;;
6985;SDS011;3533;51.246;6.850;2024-01-11T08:27:35;7.33;;;6.83;;
6985;SDS011;3533;51.246;6.850;2024-01-11T08:30:01;7.47;;;6.80;;
6985;SDS011;3533;51.246;6.850;2024-01-11T08:32:27;8.40;;;7.50;;
6985;SDS011;3533;51.246;6.850;2024-01-11T08:34:53;8.10;;;7.40;;
6985;SDS011;3533;51.246;6.850;2024-01-11T08:37:19;7.17;;;6.60;;
6985;SDS011;3533;51.246;6.850;2024-01-11T08:39:44;6.70;;;6.30;;
6985;SDS011;3533;51.246;6.850;2024-01-11T08:42:11;8.03;;;7.20;;
6985;SDS011;3533;51.246;6.850;2024-01-11T08:44:40;7.63;;;6.93;;
6985;SDS011;3533;51.246;6.850;2024-01-11T08:47:09;7.30;;;6.70;;
6985;SDS011;3533;51.246;6.850;2024-01-11T08:49:38;8.50;;;6.83;;
6985;SDS011;3533;51.246;6.850;2024-01-11T08:52:04;7.47;;;6.77;;
6985;SDS011;3533;51.246;6.850;2024-01-11T08:54:30;7.53;;;6.90;;
6985;SDS011;3533;51.246;6.850;2024-01-11T08:56:58;7.30;;;6.60;;
6985;SDS011;3533;51.246;6.850;2024-01-11T08:59:23;7.70;;;6.97;;
6985;SDS011;3533;51.246;6.850;2024-01-11T09:01:50;8.50;;;7.70;;
6985;SDS011;3533;51.246;6.850;2024-01-11T09:04:17;8.30;;;7.60;;
6985;SDS011;3533;51.246;6.850;2024-01-11T09:06:42;7.17;;;6.50;;
6985;SDS011;3533;51.246;6.850;2024-01-11T09:09:08;9.13;;;7.50;;
6985;SDS011;3533;51.246;6.850;2024-01-11T09:11:35;7.73;;;7.03;;
6985;SDS011;3533;51.246;6.850;2024-01-11T09:14:01;7.70;;;6.93;;
6985;SDS011;3533;51.246;6.850;2024-01-11T09:16:28;10.17;;;8.67;;
6985;SDS011;3533;51.246;6.850;2024-01-11T09:18:53;7.47;;;6.87;;
6985;SDS011;3533;51.246;6.850;2024-01-11T09:21:19;8.10;;;7.40;;
6985;SDS011;3533;51.246;6.850;2024-01-11T09:23:45;8.30;;;7.47;;
6985;SDS011;3533;51.246;6.850;2024-01-11T09:26:10;8.03;;;7.30;;
6985;SDS011;3533;51.246;6.850;2024-01-11T09:28:36;8.00;;;7.30;;
6985;SDS011;3533;51.246;6.850;2024-01-11T09:31:01;7.47;;;6.83;;
6985;SDS011;3533;51.246;6.850;2024-01-11T09:33:27;7.70;;;7.10;;
6985;SDS011;3533;51.246;6.850;2024-01-11T09:35:54;8.00;;;7.30;;
6985;SDS011;3533;51.246;6.850;2024-01-11T09:38:21;7.60;;;7.00;;
6985;SDS011;3533;51.246;6.850;2024-01-11T09:40:48;10.60;;;8.20;;
6985;SDS011;3533;51.246;6.850;2024-01-11T09:43:27;7.57;;;6.90;;
6985;SDS011;3533;51.246;6.850;2024-01-11T09:45:53;7.40;;;6.80;;
6985;SDS011;3533;51.246;6.850;2024-01-11T09:48:20;8.20;;;7.50;;
6985;SDS011;3533;51.246;6.850;2024-01-11T09:50:46;7.60;;;6.90;;
6985;SDS011;3533;51.246;6.850;2024-01-11T09:53:12;7.53;;;6.93;;
6985;SDS011;3533;51.246;6.850;2024-01-11T09:55:39;10.20;;;7.70;;
6985;SDS011;3533;51.246;6.850;2024-01-11T09:58:04;8.10;;;7.40;;
6985;SDS011;3533;51.246;6.850;2024-01-11T10:00:31;8.10;;;7.10;;
6985;SDS011;3533;51.246;6.850;2024-01-11T10:02:57;8.27;;;7.47;;
6985;SDS011;3533;51.246;6.850;2024-01-11T10:05:23;7.17;;;6.63;;
6985;SDS011;3533;51.246;6.850;2024-01-11T10:07:49;7.23;;;6.73;;
6985;SDS011;3533;51.246;6.850;2024-01-11T10:10:15;7.50;;;6.90;;
6985;SDS011;3533;51.246;6.850;2024-01-11T10:12:40;7.70;;;7.07;;
6985;SDS011;3533;51.246;6.850;2024-01-11T10:15:06;8.30;;;7.70;;
6985;SDS011;3533;51.246;6.850;2024-01-11T10:17:35;8.33;;;7.60;;
6985;SDS011;3533;51.246;6.850;2024-01-11T10:20:11;7.97;;;7.13;;
6985;SDS011;3533;51.246;6.850;2024-01-11T10:22:39;7.50;;;6.80;;
6985;SDS011;3533;51.246;6.850;2024-01-11T10:25:11;7.60;;;6.93;;
6985;SDS011;3533;51.246;6.850;2024-01-11T10:27:42;7.97;;;7.37;;
6985;SDS011;3533;51.246;6.850;2024-01-11T10:30:09;8.23;;;7.53;;
6985;SDS011;3533;51.246;6.850;2024-01-11T10:32:40;8.33;;;7.57;;
6985;SDS011;3533;51.246;6.850;2024-01-11T10:35:06;9.07;;;8.17;;
6985;SDS011;3533;51.246;6.850;2024-01-11T10:37:32;7.30;;;6.70;;
6985;SDS011;3533;51.246;6.850;2024-01-11T10:39:58;8.90;;;8.10;;
6985;SDS011;3533;51.246;6.850;2024-01-11T10:42:49;8.20;;;7.60;;
6985;SDS011;3533;51.246;6.850;2024-01-11T10:45:17;7.43;;;6.83;;
6985;SDS011;3533;51.246;6.850;2024-01-11T10:47:50;7.50;;;6.90;;
6985;SDS011;3533;51.246;6.850;2024-01-11T10:50:18;7.40;;;6.90;;
6985;SDS011;3533;51.246;6.850;2024-01-11T10:52:50;8.13;;;7.37;;
6985;SDS011;3533;51.246;6.850;2024-01-11T10:55:27;8.20;;;7.40;;
6985;SDS011;3533;51.246;6.850;2024-01-11T10:57:56;7.30;;;6.80;;
6985;SDS011;3533;51.246;6.850;2024-01-11T11:00:23;7.40;;;6.80;;
6985;SDS011;3533;51.246;6.850;2024-01-11T11:02:49;7.63;;;7.03;;
6985;SDS011;3533;51.246;6.850;2024-01-11T11:05:16;7.93;;;7.30;;
6985;SDS011;3533;51.246;6.850;2024-01-11T11:07:44;7.93;;;7.23;;
6985;SDS011;3533;51.246;6.850;2024-01-11T11:10:11;8.47;;;7.70;;
6985;SDS011;3533;51.246;6.850;2024-01-11T11:12:38;8.20;;;7.40;;
6985;SDS011;3533;51.246;6.850;2024-01-11T11:15:05;8.30;;;7.50;;
6985;SDS011;3533;51.246;6.850;2024-01-11T11:17:32;8.10;;;7.50;;
6985;SDS011;3533;51.246;6.850;2024-01-11T11:19:58;7.43;;;6.90;;
6985;SDS011;3533;51.246;6.850;2024-01-11T11:22:26;8.00;;;7.30;;
6985;SDS011;3533;51.246;6.850;2024-01-11T11:25:08;7.93;;;7.30;;
6985;SDS011;3533;51.246;6.850;2024-01-11T11:27:35;8.17;;;7.50;;
6985;SDS011;3533;51.246;6.850;2024-01-11T11:30:03;8.30;;;7.50;;
6985;SDS011;3533;51.246;6.850;2024-01-11T11:32:37;8.57;;;7.87;;
6985;SDS011;3533;51.246;6.850;2024-01-11T11:35:04;7.17;;;6.60;;
6985;SDS011;3533;51.246;6.850;2024-01-11T11:37:30;7.80;;;7.20;;
6985;SDS011;3533;51.246;6.850;2024-01-11T11:39:59;8.53;;;7.60;;
6985;SDS011;3533;51.246;6.850;2024-01-11T11:42:25;8.43;;;7.73;;
6985;SDS011;3533;51.246;6.850;2024-01-11T11:44:51;7.67;;;7.03;;
6985;SDS011;3533;51.246;6.850;2024-01-11T11:47:20;8.10;;;7.40;;
6985;SDS011;3533;51.246;6.850;2024-01-11T11:50:07;7.93;;;7.23;;
6985;SDS011;3533;51.246;6.850;2024-01-11T11:52:34;8.10;;;7.37;;
6985;SDS011;3533;51.246;6.850;2024-01-11T11:55:04;7.70;;;7.10;;
6985;SDS011;3533;51.246;6.850;2024-01-11T11:57:31;7.57;;;6.97;;
6985;SDS011;3533;51.246;6.850;2024-01-11T11:59:58;8.20;;;7.50;;
6985;SDS011;3533;51.246;6.850;2024-01-11T12:02:24;7.63;;;6.93;;
6985;SDS011;3533;51.246;6.850;2024-01-11T12:04:51;7.53;;;6.83;;
6985;SDS011;3533;51.246;6.850;2024-01-11T12:07:17;8.67;;;7.27;;
6985;SDS011;3533;51.246;6.850;2024-01-11T12:09:43;7.90;;;7.20;;
6985;SDS011;3533;51.246;6.850;2024-01-11T12:12:08;7.83;;;7.13;;
6985;SDS011;3533;51.246;6.850;2024-01-11T12:14:34;7.90;;;7.10;;
6985;SDS011;3533;51.246;6.850;2024-01-11T12:17:00;8.37;;;7.67;;
6985;SDS011;3533;51.246;6.850;2024-01-11T12:19:27;8.40;;;7.73;;
6985;SDS011;3533;51.246;6.850;2024-01-11T12:21:53;7.73;;;6.93;;
6985;SDS011;3533;51.246;6.850;2024-01-11T12:24:19;8.80;;;8.00;;
6985;SDS011;3533;51.246;6.850;2024-01-11T12:26:48;8.87;;;8.07;;
6985;SDS011;3533;51.246;6.850;2024-01-11T12:29:16;7.77;;;7.07;;
6985;SDS011;3533;51.246;6.850;2024-01-11T12:31:43;7.60;;;6.80;;
6985;SDS011;3533;51.246;6.850;2024-01-11T12:34:09;8.30;;;7.60;;
6985;SDS011;3533;51.246;6.850;2024-01-11T12:36:36;7.30;;;6.80;;
6985;SDS011;3533;51.246;6.850;2024-01-11T12:39:03;7.83;;;7.13;;
6985;SDS011;3533;51.246;6.850;2024-01-11T12:41:31;8.03;;;7.33;;
6985;SDS011;3533;51.246;6.850;2024-01-11T12:43:57;7.90;;;7.20;;
6985;SDS011;3533;51.246;6.850;2024-01-11T12:46:23;7.73;;;7.03;;
6985;SDS011;3533;51.246;6.850;2024-01-11T12:48:49;7.97;;;7.27;;
6985;SDS011;3533;51.246;6.850;2024-01-11T12:51:15;7.57;;;6.90;;
6985;SDS011;3533;51.246;6.850;2024-01-11T12:53:44;7.90;;;7.20;;
6985;SDS011;3533;51.246;6.850;2024-01-11T12:56:11;9.77;;;7.60;;
6985;SDS011;3533;51.246;6.850;2024-01-11T12:58:39;7.20;;;6.60;;
6985;SDS011;3533;51.246;6.850;2024-01-11T13:01:05;8.23;;;7.60;;
6985;SDS011;3533;51.246;6.850;2024-01-11T13:03:38;7.90;;;7.30;;
6985;SDS011;3533;51.246;6.850;2024-01-11T13:06:04;8.57;;;7.87;;
6985;SDS011;3533;51.246;6.850;2024-01-11T13:08:31;11.47;;;7.47;;
6985;SDS011;3533;51.246;6.850;2024-01-11T13:10:57;8.63;;;7.83;;
6985;SDS011;3533;51.246;6.850;2024-01-11T13:13:22;8.70;;;7.80;;
6985;SDS011;3533;51.246;6.850;2024-01-11T13:15:48;8.03;;;6.97;;
6985;SDS011;3533;51.246;6.850;2024-01-11T13:18:13;7.60;;;7.00;;
6985;SDS011;3533;51.246;6.850;2024-01-11T13:20:39;7.63;;;7.07;;
6985;SDS011;3533;51.246;6.850;2024-01-11T13:23:18;8.63;;;7.77;;
6985;SDS011;3533;51.246;6.850;2024-01-11T13:25:45;8.37;;;7.77;;
6985;SDS011;3533;51.246;6.850;2024-01-11T13:28:12;8.83;;;7.93;;
6985;SDS011;3533;51.246;6.850;2024-01-11T13:30:38;8.53;;;7.70;;
6985;SDS011;3533;51.246;6.850;2024-01-11T13:33:05;7.90;;;7.23;;
6985;SDS011;3533;51.246;6.850;2024-01-11T13:35:32;8.40;;;7.70;;
6985;SDS011;3533;51.246;6.850;2024-01-11T13:37:59;8.40;;;7.57;;
6985;SDS011;3533;51.246;6.850;2024-01-11T13:40:25;7.90;;;7.30;;
6985;SDS011;3533;51.246;6.850;2024-01-11T13:42:53;9.13;;;8.10;;
6985;SDS011;3533;51.246;6.850;2024-01-11T13:45:19;7.87;;;7.10;;
6985;SDS011;3533;51.246;6.850;2024-01-11T13:47:45;7.20;;;6.50;;
6985;SDS011;3533;51.246;6.850;2024-01-11T13:50:10;9.53;;;8.30;;
6985;SDS011;3533;51.246;6.850;2024-01-11T13:52:37;8.93;;;8.03;;
6985;SDS011;3533;51.246;6.850;2024-01-11T13:55:02;7.93;;;7.30;;
6985;SDS011;3533;51.246;6.850;2024-01-11T13:57:28;8.90;;;8.10;;
6985;SDS011;3533;51.246;6.850;2024-01-11T13:59:54;8.10;;;7.20;;
6985;SDS011;3533;51.246;6.850;2024-01-11T14:02:20;8.60;;;7.80;;
6985;SDS011;3533;51.246;6.850;2024-01-11T14:04:46;8.67;;;7.83;;
6985;SDS011;3533;51.246;6.850;2024-01-11T14:07:11;7.90;;;7.20;;
6985;SDS011;3533;51.246;6.850;2024-01-11T14:09:37;8.27;;;7.57;;
6985;SDS011;3533;51.246;6.850;2024-01-11T14:12:03;7.67;;;6.90;;
6985;SDS011;3533;51.246;6.850;2024-01-11T14:14:29;8.13;;;7.50;;
6985;SDS011;3533;51.246;6.850;2024-01-11T14:16:54;8.30;;;7.50;;
6985;SDS011;3533;51.246;6.850;2024-01-11T14:19:20;7.20;;;6.70;;
6985;SDS011;3533;51.246;6.850;2024-01-11T14:21:45;7.97;;;7.27;;
6985;SDS011;3533;51.246;6.850;2024-01-11T14:24:11;7.07;;;6.50;;
6985;SDS011;3533;51.246;6.850;2024-01-11T14:26:37;7.13;;;6.63;;
6985;SDS011;3533;51.246;6.850;2024-01-11T14:29:03;7.50;;;6.87;;
6985;SDS011;3533;51.246;6.850;2024-01-11T14:31:28;8.43;;;7.73;;
6985;SDS011;3533;51.246;6.850;2024-01-11T14:33:54;8.20;;;7.40;;
6985;SDS011;3533;51.246;6.850;2024-01-11T14:36:19;7.17;;;6.63;;
6985;SDS011;3533;51.246;6.850;2024-01-11T14:38:45;7.40;;;6.90;;
6985;SDS011;3533;51.246;6.850;2024-01-11T14:41:11;7.00;;;6.50;;
6985;SDS011;3533;51.246;6.850;2024-01-11T14:43:38;7.30;;;6.70;;
6985;SDS011;3533;51.246;6.850;2024-01-11T14:46:04;7.10;;;6.50;;
6985;SDS011;3533;51.246;6.850;2024-01-11T14:48:30;7.30;;;6.70;;
6985;SDS011;3533;51.246;6.850;2024-01-11T14:50:56;7.83;;;7.13;;
6985;SDS011;3533;51.246;6.850;2024-01-11T14:53:22;7.63;;;7.00;;
6985;SDS011;3533;51.246;6.850;2024-01-11T14:55:48;7.63;;;7.03;;
6985;SDS011;3533;51.246;6.850;2024-01-11T14:58:14;8.67;;;7.83;;
6985;SDS011;3533;51.246;6.850;2024-01-11T15:00:41;7.23;;;6.63;;
6985;SDS011;3533;51.246;6.850;2024-01-11T15:03:06;7.83;;;7.23;;
6985;SDS011;3533;51.246;6.850;2024-01-11T15:05:32;7.30;;;6.60;;
6985;SDS011;3533;51.246;6.850;2024-01-11T15:07:58;7.60;;;6.90;;
6985;SDS011;3533;51.246;6.850;2024-01-11T15:10:23;7.00;;;6.40;;